createdAt,value
2023-02-24T00:01:29.784Z,66.58
2023-02-24T00:03:31.750Z,66.58
2023-02-24T00:05:35.360Z,66.31
2023-02-24T00:07:37.226Z,65.95
2023-02-24T00:09:40.232Z,66.07
2023-02-24T00:11:43.698Z,66.34
2023-02-24T00:13:46.492Z,66.94
2023-02-24T00:15:58.981Z,66.95
2023-02-24T00:18:02.008Z,66.64
2023-02-24T00:20:04.363Z,67.40
2023-02-24T00:22:08.561Z,67.30
2023-02-24T00:24:10.602Z,66.64
2023-02-24T00:26:13.895Z,67.15
2023-02-24T00:28:15.644Z,66.89
2023-02-24T00:30:18.209Z,67.59
2023-02-24T00:32:19.946Z,67.66
2023-02-24T00:34:23.737Z,67.57
2023-02-24T00:36:27.044Z,67.42
2023-02-24T00:38:28.858Z,67.80
2023-02-24T00:40:30.507Z,67.00
2023-02-24T00:42:32.107Z,67.50
2023-02-24T00:44:35.738Z,67.41
2023-02-24T00:46:39.234Z,67.43
2023-02-24T00:48:41.186Z,66.78
2023-02-24T00:50:44.360Z,67.46
2023-02-24T00:52:46.016Z,67.21
2023-02-24T00:54:49.351Z,66.95
2023-02-24T00:56:51.022Z,67.20
2023-02-24T00:58:53.944Z,66.88
2023-02-24T01:00:55.863Z,66.63
2023-02-24T01:02:57.546Z,65.77
2023-02-24T01:04:59.234Z,65.53
2023-02-24T01:07:03.409Z,65.76
2023-02-24T01:09:05.074Z,65.83
2023-02-24T01:11:07.011Z,65.79
2023-02-24T01:13:08.714Z,65.46
2023-02-24T01:15:11.556Z,65.41
2023-02-24T01:17:14.057Z,65.79
2023-02-24T01:19:17.004Z,65.87
2023-02-24T01:21:20.441Z,65.33
2023-02-24T01:23:23.622Z,64.40
2023-02-24T01:25:25.160Z,63.09
2023-02-24T01:27:26.682Z,63.10
2023-02-24T01:29:28.445Z,63.41
2023-02-24T01:31:30.520Z,63.88
2023-02-24T01:33:33.565Z,62.77
2023-02-24T01:35:35.540Z,63.02
2023-02-24T01:37:37.578Z,63.28
2023-02-24T01:39:40.596Z,63.50
2023-02-24T01:41:45.009Z,63.62
2023-02-24T01:43:58.696Z,63.35
2023-02-24T01:46:00.495Z,63.16
2023-02-24T01:48:06.850Z,64.27
2023-02-24T01:50:09.960Z,63.95
2023-02-24T01:52:16.632Z,64.00
2023-02-24T01:54:21.345Z,63.52
2023-02-24T01:56:24.531Z,63.37
2023-02-24T01:58:29.222Z,63.51
2023-02-24T02:00:31.441Z,63.39
2023-02-24T02:02:33.411Z,63.16
2023-02-24T02:04:40.151Z,63.50
2023-02-24T02:06:41.885Z,63.31
2023-02-24T02:08:44.315Z,63.78
2023-02-24T02:10:46.949Z,64.24
2023-02-24T02:12:50.025Z,63.96
2023-02-24T02:14:54.560Z,63.75
2023-02-24T02:17:13.878Z,64.67
2023-02-24T02:19:50.725Z,64.35
2023-02-24T02:22:05.382Z,63.82
2023-02-24T02:24:35.067Z,63.98
2023-02-24T02:27:15.217Z,64.81
2023-02-24T02:29:38.312Z,64.72
2023-02-24T02:32:30.749Z,63.88
2023-02-24T02:34:45.652Z,63.99
2023-02-24T02:36:55.753Z,62.95
2023-02-24T02:39:08.682Z,63.64
2023-02-24T02:41:20.766Z,62.84
2023-02-24T02:43:31.222Z,62.42
2023-02-24T02:45:40.929Z,63.51
2023-02-24T02:47:48.915Z,63.18
2023-02-24T02:49:58.140Z,63.73
2023-02-24T02:52:05.428Z,62.12
2023-02-24T02:54:16.094Z,63.15
2023-02-24T02:56:21.954Z,63.19
2023-02-24T02:58:30.196Z,63.35
2023-02-24T03:00:36.501Z,63.01
2023-02-24T03:02:43.833Z,63.11
2023-02-24T03:04:51.508Z,63.46
2023-02-24T03:07:00.582Z,63.32
2023-02-24T03:09:07.588Z,63.11
2023-02-24T03:11:15.040Z,63.00
2023-02-24T03:13:21.314Z,62.83
2023-02-24T03:15:28.086Z,63.43
2023-02-24T03:17:33.954Z,62.97
2023-02-24T03:19:39.067Z,62.59
2023-02-24T03:21:44.355Z,63.46
2023-02-24T03:23:50.782Z,62.73
2023-02-24T03:25:56.559Z,63.29
2023-02-24T03:28:02.814Z,63.32
2023-02-24T03:30:11.161Z,64.30
2023-02-24T03:32:18.549Z,63.61
2023-02-24T03:34:27.424Z,63.89
2023-02-24T03:36:29.533Z,63.60
2023-02-24T03:38:33.674Z,63.47
2023-02-24T03:40:37.532Z,63.64
2023-02-24T03:42:42.596Z,63.81
2023-02-24T03:44:44.204Z,63.60
2023-02-24T03:46:45.920Z,63.61
2023-02-24T03:48:53.096Z,64.20
2023-02-24T03:50:55.809Z,64.02
2023-02-24T03:53:08.159Z,63.34
2023-02-24T03:55:25.539Z,63.84
2023-02-24T03:57:40.574Z,63.99
2023-02-24T03:59:50.814Z,64.27
2023-02-24T04:01:56.954Z,63.29
2023-02-24T04:04:05.429Z,63.93
2023-02-24T04:06:13.156Z,64.19
2023-02-24T04:08:17.302Z,63.29
2023-02-24T04:10:24.143Z,63.84
2023-02-24T04:12:30.755Z,63.51
2023-02-24T04:14:40.178Z,63.64
2023-02-24T04:16:48.506Z,64.35
2023-02-24T04:18:51.965Z,64.01
2023-02-24T04:20:56.113Z,63.93
2023-02-24T04:23:04.570Z,64.64
2023-02-24T04:25:09.537Z,64.63
2023-02-24T04:27:13.506Z,64.49
2023-02-24T04:29:20.926Z,64.77
2023-02-24T04:31:25.630Z,64.23
2023-02-24T04:33:27.804Z,64.59
2023-02-24T04:35:29.625Z,64.42
2023-02-24T04:37:31.275Z,64.54
2023-02-24T04:39:32.867Z,64.58
2023-02-24T04:41:34.451Z,64.10
2023-02-24T04:43:36.283Z,64.42
2023-02-24T04:45:39.336Z,64.14
2023-02-24T04:47:40.835Z,63.79
2023-02-24T04:49:42.355Z,64.22
2023-02-24T04:51:44.909Z,64.31
2023-02-24T04:53:46.456Z,64.49
2023-02-24T04:55:48.995Z,64.60
2023-02-24T04:57:53.481Z,64.23
2023-02-24T04:59:54.987Z,64.33
2023-02-24T05:01:58.010Z,63.90
2023-02-24T05:03:59.670Z,63.98
2023-02-24T05:06:01.949Z,64.03
2023-02-24T05:08:06.032Z,64.63
2023-02-24T05:10:08.187Z,64.16
2023-02-24T05:12:09.819Z,64.18
2023-02-24T05:14:13.362Z,64.27
2023-02-24T05:16:17.760Z,64.11
2023-02-24T05:18:21.150Z,64.03
2023-02-24T05:20:22.850Z,63.96
2023-02-24T05:22:24.473Z,63.98
2023-02-24T05:27:29.228Z,64.10
2023-02-24T05:29:32.530Z,64.50
2023-02-24T05:31:34.647Z,64.38
2023-02-24T05:33:38.867Z,64.73
2023-02-24T05:35:40.401Z,64.71
2023-02-24T05:37:42.179Z,64.82
2023-02-24T05:39:43.650Z,64.19
2023-02-24T05:41:47.814Z,64.88
2023-02-24T05:43:51.376Z,64.71
2023-02-24T05:45:52.997Z,64.35
2023-02-24T05:47:54.516Z,65.15
2023-02-24T05:49:57.542Z,64.75
2023-02-24T05:52:00.575Z,64.89
2023-02-24T05:54:02.497Z,65.09
2023-02-24T05:56:04.409Z,65.45
2023-02-24T05:58:06.262Z,65.28
2023-02-24T06:00:09.585Z,64.85
2023-02-24T06:02:13.353Z,64.90
2023-02-24T06:04:16.520Z,65.76
2023-02-24T06:06:19.803Z,64.77
2023-02-24T06:08:21.331Z,65.03
2023-02-24T06:10:23.069Z,65.56
2023-02-24T06:12:26.422Z,65.49
2023-02-24T06:14:28.546Z,65.35
2023-02-24T06:16:30.301Z,64.81
2023-02-24T06:18:32.632Z,65.67
2023-02-24T06:20:34.494Z,65.60
2023-02-24T06:22:37.423Z,65.44
2023-02-24T06:24:39.444Z,65.97
2023-02-24T06:26:41.774Z,66.08
2023-02-24T06:28:43.473Z,65.35
2023-02-24T06:30:45.072Z,65.50
2023-02-24T06:32:46.655Z,65.95
2023-02-24T06:34:48.617Z,65.83
2023-02-24T06:36:50.224Z,65.48
2023-02-24T06:38:53.614Z,65.92
2023-02-24T06:40:57.361Z,66.43
2023-02-24T06:42:58.916Z,65.89
2023-02-24T06:45:00.566Z,65.46
2023-02-24T06:47:04.775Z,66.04
2023-02-24T06:49:06.327Z,66.17
2023-02-24T06:51:10.365Z,65.83
2023-02-24T06:53:11.895Z,66.06
2023-02-24T06:55:15.796Z,66.11
2023-02-24T06:57:17.440Z,66.21
2023-02-24T06:59:19.267Z,66.48
2023-02-24T07:01:23.952Z,66.22
2023-02-24T07:03:29.566Z,65.93
2023-02-24T07:05:33.630Z,66.15
2023-02-24T07:07:35.221Z,65.66
2023-02-24T07:09:36.775Z,66.40
2023-02-24T07:11:41.793Z,66.61
2023-02-24T07:13:43.756Z,67.12
2023-02-24T07:15:45.505Z,66.73
2023-02-24T07:17:48.498Z,66.54
2023-02-24T07:19:50.383Z,67.24
2023-02-24T07:21:56.357Z,67.52
2023-02-24T07:23:59.336Z,67.19
2023-02-24T07:26:06.407Z,67.60
2023-02-24T07:28:10.023Z,67.80
2023-02-24T07:30:12.754Z,67.65
2023-02-24T07:32:14.462Z,66.96
2023-02-24T07:34:16.068Z,67.03
2023-02-24T07:36:18.300Z,67.27
2023-02-24T07:38:20.221Z,67.27
2023-02-24T07:40:22.140Z,68.09
2023-02-24T07:42:23.779Z,67.67
2023-02-24T07:44:26.958Z,68.19
2023-02-24T07:46:30.777Z,67.85
2023-02-24T07:48:32.430Z,67.85
2023-02-24T07:50:34.453Z,67.98
2023-02-24T07:52:36.518Z,67.54
2023-02-24T07:54:38.582Z,68.02
2023-02-24T07:56:40.264Z,68.07
2023-02-24T07:58:42.425Z,68.25
2023-02-24T08:00:45.347Z,67.88
2023-02-24T08:02:48.529Z,67.95
2023-02-24T08:04:50.712Z,68.59
2023-02-24T08:06:53.064Z,68.57
2023-02-24T08:08:56.378Z,68.29
2023-02-24T08:10:58.253Z,67.90
2023-02-24T08:13:00.130Z,68.30
2023-02-24T08:15:02.002Z,68.10
2023-02-24T08:17:05.496Z,68.03
2023-02-24T08:19:08.117Z,68.57
2023-02-24T08:21:09.766Z,67.80
2023-02-24T08:23:11.399Z,67.86
2023-02-24T08:25:14.299Z,67.75
2023-02-24T08:27:16.954Z,68.44
2023-02-24T08:29:18.601Z,68.50
2023-02-24T08:31:20.641Z,68.44
2023-02-24T08:33:23.891Z,67.94
2023-02-24T08:35:28.876Z,68.77
2023-02-24T08:37:32.010Z,67.99
2023-02-24T08:39:33.576Z,68.58
2023-02-24T08:41:35.453Z,68.61
2023-02-24T08:43:39.610Z,69.47
2023-02-24T08:45:42.147Z,69.58
2023-02-24T08:47:43.763Z,69.22
2023-02-24T08:49:47.089Z,69.13
2023-02-24T08:51:49.396Z,69.86
2023-02-24T08:53:52.811Z,69.60
2023-02-24T08:55:54.474Z,69.60
2023-02-24T08:57:56.525Z,69.92
2023-02-24T08:59:58.145Z,70.36
2023-02-24T09:02:04.593Z,70.21
2023-02-24T09:04:09.649Z,70.27
2023-02-24T09:06:14.436Z,70.81
2023-02-24T09:08:15.918Z,70.98
2023-02-24T09:10:19.318Z,70.88
2023-02-24T09:12:21.060Z,71.09
2023-02-24T09:14:27.941Z,70.94
2023-02-24T09:16:30.534Z,71.17
2023-02-24T09:18:32.445Z,71.51
2023-02-24T09:20:34.281Z,71.06
2023-02-24T09:22:37.515Z,71.78
2023-02-24T09:24:39.066Z,72.04
2023-02-24T09:26:40.709Z,71.97
2023-02-24T09:28:42.429Z,72.15
2023-02-24T09:30:46.102Z,72.14
2023-02-24T09:32:48.062Z,72.71
2023-02-24T09:34:49.933Z,72.73
2023-02-24T09:36:51.826Z,72.94
2023-02-24T09:38:56.410Z,72.79
2023-02-24T09:40:59.686Z,72.95
2023-02-24T09:43:03.892Z,73.40
2023-02-24T09:45:11.462Z,73.28
2023-02-24T09:47:16.366Z,73.15
2023-02-24T09:49:19.136Z,73.39
2023-02-24T09:51:23.317Z,73.11
2023-02-24T09:53:25.071Z,72.65
2023-02-24T09:55:37.539Z,73.08
2023-02-24T09:57:46.827Z,73.10
2023-02-24T09:59:54.678Z,73.89
2023-02-24T10:02:03.277Z,74.16
2023-02-24T10:04:21.825Z,73.98
2023-02-24T10:06:25.842Z,73.47
2023-02-24T10:08:34.546Z,73.85
2023-02-24T10:10:37.708Z,74.36
2023-02-24T10:12:39.596Z,73.85
2023-02-24T10:14:52.047Z,74.29
2023-02-24T10:16:56.353Z,74.24
2023-02-24T10:19:05.449Z,74.25
2023-02-24T10:21:20.259Z,74.50
2023-02-24T10:23:28.467Z,74.71
2023-02-24T10:25:45.128Z,74.27
2023-02-24T10:27:58.738Z,74.39
2023-02-24T10:30:08.177Z,74.05
2023-02-24T10:32:19.254Z,74.38
2023-02-24T10:34:23.826Z,74.63
2023-02-24T10:36:26.093Z,74.47
2023-02-24T10:38:27.845Z,74.21
2023-02-24T10:40:29.638Z,74.81
2023-02-24T10:42:32.944Z,74.16
2023-02-24T10:44:34.659Z,74.93
2023-02-24T10:46:41.470Z,74.61
2023-02-24T10:48:52.593Z,74.71
2023-02-24T10:50:56.725Z,75.16
2023-02-24T10:53:04.625Z,75.13
2023-02-24T10:55:13.264Z,74.80
2023-02-24T10:57:15.305Z,74.92
2023-02-24T10:59:19.227Z,75.06
2023-02-24T11:01:31.719Z,74.91
2023-02-24T11:03:34.584Z,75.32
2023-02-24T11:05:41.150Z,75.60
2023-02-24T11:07:42.888Z,75.82
2023-02-24T11:09:44.753Z,75.10
2023-02-24T11:11:47.547Z,75.66
2023-02-24T11:13:50.735Z,76.17
2023-02-24T11:15:55.149Z,75.25
2023-02-24T11:17:59.293Z,75.71
2023-02-24T11:20:03.383Z,75.87
2023-02-24T11:22:05.704Z,75.34
2023-02-24T11:24:15.650Z,76.49
2023-02-24T11:26:21.239Z,75.99
2023-02-24T11:28:40.582Z,76.00
2023-02-24T11:30:52.987Z,76.67
2023-02-24T11:33:17.589Z,76.71
2023-02-24T11:35:26.893Z,76.74
2023-02-24T11:37:36.440Z,76.45
2023-02-24T11:39:51.134Z,76.43
2023-02-24T11:41:57.225Z,76.49
2023-02-24T11:44:04.646Z,76.42
2023-02-24T11:46:12.281Z,76.36
2023-02-24T11:48:19.953Z,76.36
2023-02-24T11:50:39.391Z,76.10
2023-02-24T11:52:45.749Z,76.51
2023-02-24T11:54:52.266Z,76.43
2023-02-24T11:56:56.843Z,76.11
2023-02-24T11:59:04.024Z,76.13
2023-02-24T12:01:12.439Z,75.94
2023-02-24T12:03:22.774Z,76.19
2023-02-24T12:05:27.965Z,76.63
2023-02-24T12:07:34.035Z,76.56
2023-02-24T12:09:43.756Z,76.49
2023-02-24T12:11:53.896Z,77.41
2023-02-24T12:14:06.964Z,76.41
2023-02-24T12:16:14.372Z,76.87
2023-02-24T12:18:24.279Z,76.67
2023-02-24T12:20:30.454Z,76.46
2023-02-24T12:22:40.657Z,76.86
2023-02-24T12:24:47.681Z,76.51
2023-02-24T12:27:03.691Z,76.71
2023-02-24T12:29:49.753Z,76.08
2023-02-24T12:32:01.782Z,76.83
2023-02-24T12:34:12.672Z,76.89
2023-02-24T12:36:30.532Z,76.19
2023-02-24T12:38:48.589Z,76.54
2023-02-24T12:40:57.515Z,77.04
2023-02-24T12:43:11.198Z,77.20
2023-02-24T12:45:19.140Z,77.08
2023-02-24T12:47:33.905Z,76.69
2023-02-24T12:50:10.021Z,76.29
2023-02-24T12:52:20.409Z,76.59
2023-02-24T12:54:27.190Z,76.73
2023-02-24T12:56:41.658Z,77.28
2023-02-24T12:58:46.291Z,77.37
2023-02-24T13:01:02.013Z,76.88
2023-02-24T13:03:19.592Z,76.64
2023-02-24T13:05:28.757Z,76.52
2023-02-24T13:07:44.952Z,77.08
2023-02-24T13:09:52.537Z,76.51
2023-02-24T13:11:57.831Z,76.97
2023-02-24T13:14:06.922Z,76.72
2023-02-24T13:16:11.660Z,77.40
2023-02-24T13:18:24.331Z,76.50
2023-02-24T13:20:30.526Z,76.54
2023-02-24T13:22:33.001Z,77.04
2023-02-24T13:24:35.616Z,76.82
2023-02-24T13:26:37.214Z,76.85
2023-02-24T13:28:38.995Z,76.78
2023-02-24T13:30:42.490Z,76.66
2023-02-24T13:32:46.503Z,77.14
2023-02-24T13:34:48.116Z,76.78
2023-02-24T13:36:51.533Z,76.73
2023-02-24T13:39:05.481Z,76.86
2023-02-24T13:41:35.054Z,76.65
2023-02-24T13:43:36.866Z,76.92
2023-02-24T13:45:39.905Z,76.88
2023-02-24T13:48:19.143Z,76.20
2023-02-24T13:50:23.366Z,76.92
2023-02-24T13:52:37.978Z,77.14
2023-02-24T13:55:03.255Z,76.36
2023-02-24T13:57:21.319Z,77.08
2023-02-24T13:59:57.751Z,76.91
2023-02-24T14:02:02.164Z,76.48
2023-02-24T14:04:14.116Z,76.49
2023-02-24T14:06:22.689Z,76.72
2023-02-24T14:08:38.102Z,77.12
2023-02-24T14:10:45.899Z,76.61
2023-02-24T14:12:49.708Z,76.83
2023-02-24T14:14:52.171Z,77.06
2023-02-24T14:16:53.744Z,76.69
2023-02-24T14:18:57.444Z,76.34
2023-02-24T14:20:59.174Z,76.54
2023-02-24T14:23:01.409Z,76.48
2023-02-24T14:25:05.959Z,76.81
2023-02-24T14:27:07.582Z,77.05
2023-02-24T14:29:09.791Z,77.27
2023-02-24T14:31:15.408Z,76.78
2023-02-24T14:33:25.847Z,76.51
2023-02-24T14:35:33.603Z,77.24
2023-02-24T14:37:35.844Z,76.98
2023-02-24T14:39:37.426Z,76.91
2023-02-24T14:41:40.758Z,76.73
2023-02-24T14:43:42.655Z,76.95
2023-02-24T14:45:48.686Z,77.07
2023-02-24T14:47:50.390Z,76.94
2023-02-24T14:49:54.594Z,76.87
2023-02-24T14:52:02.135Z,76.74
2023-02-24T14:54:08.905Z,76.55
2023-02-24T14:56:13.408Z,76.67
2023-02-24T14:58:21.641Z,76.98
2023-02-24T15:00:26.945Z,76.57
2023-02-24T15:02:33.513Z,76.33
2023-02-24T15:04:37.231Z,76.57
2023-02-24T15:06:42.863Z,76.16
2023-02-24T15:08:48.681Z,76.65
2023-02-24T15:10:50.786Z,75.93
2023-02-24T15:12:59.145Z,76.39
2023-02-24T15:15:08.210Z,76.05
2023-02-24T15:17:16.811Z,75.83
2023-02-24T15:19:25.453Z,76.10
2023-02-24T15:21:30.230Z,76.49
2023-02-24T15:23:34.188Z,75.97
2023-02-24T15:25:43.135Z,76.33
2023-02-24T15:27:51.142Z,75.93
2023-02-24T15:30:07.198Z,76.33
2023-02-24T15:32:15.922Z,76.08
2023-02-24T15:34:19.992Z,76.53
2023-02-24T15:36:25.462Z,76.30
2023-02-24T15:38:33.500Z,76.06
2023-02-24T15:40:35.442Z,76.65
2023-02-24T15:42:37.167Z,77.12
2023-02-24T15:44:38.808Z,76.43
2023-02-24T15:46:41.923Z,76.56
2023-02-24T15:48:45.030Z,76.76
2023-02-24T15:50:46.808Z,77.16
2023-02-24T15:52:48.953Z,76.44
2023-02-24T15:54:51.909Z,76.75
2023-02-24T15:56:53.755Z,77.32
2023-02-24T15:58:55.407Z,76.62
2023-02-24T16:00:57.160Z,77.01
2023-02-24T16:03:00.341Z,77.38
2023-02-24T16:05:01.993Z,76.97
2023-02-24T16:07:05.893Z,77.30
2023-02-24T16:09:08.645Z,77.25
2023-02-24T16:11:10.950Z,77.02
2023-02-24T16:13:19.546Z,77.16
2023-02-24T16:15:25.395Z,76.54
2023-02-24T16:17:32.410Z,77.05
2023-02-24T16:19:35.786Z,76.83
2023-02-24T16:21:37.376Z,76.93
2023-02-24T16:23:39.192Z,77.26
2023-02-24T16:25:43.457Z,76.83
2023-02-24T16:27:45.138Z,76.85
2023-02-24T16:29:46.998Z,77.15
2023-02-24T16:31:48.723Z,77.39
2023-02-24T16:33:54.838Z,77.12
2023-02-24T16:35:58.782Z,77.08
2023-02-24T16:38:00.882Z,77.16
2023-02-24T16:40:02.958Z,76.64
2023-02-24T16:42:04.847Z,76.55
2023-02-24T16:44:06.496Z,76.86
2023-02-24T16:46:14.461Z,76.21
2023-02-24T16:48:20.813Z,77.12
2023-02-24T16:50:26.263Z,77.22
2023-02-24T16:52:29.304Z,76.85
2023-02-24T16:54:31.068Z,76.80
2023-02-24T16:56:32.732Z,77.16
2023-02-24T16:58:35.527Z,76.77
2023-02-24T17:00:38.974Z,77.35
2023-02-24T17:02:43.207Z,76.64
2023-02-24T17:04:44.804Z,76.69
2023-02-24T17:06:46.454Z,76.87
2023-02-24T17:08:49.489Z,77.44
2023-02-24T17:10:51.873Z,77.43
2023-02-24T17:12:53.516Z,77.59
2023-02-24T17:14:55.040Z,76.91
2023-02-24T17:16:56.602Z,77.36
2023-02-24T17:18:58.319Z,77.57
2023-02-24T17:20:59.825Z,77.58
2023-02-24T17:23:01.598Z,77.76
2023-02-24T17:25:05.715Z,77.56
2023-02-24T17:27:07.361Z,77.71
2023-02-24T17:29:09.018Z,77.75
2023-02-24T17:31:10.668Z,77.37
2023-02-24T17:33:12.617Z,77.73
2023-02-24T17:35:14.294Z,77.18
2023-02-24T17:37:17.774Z,77.71
2023-02-24T17:39:19.857Z,77.27
2023-02-24T17:41:24.369Z,78.02
2023-02-24T17:43:26.022Z,77.89
2023-02-24T17:45:27.662Z,78.12
2023-02-24T17:47:30.195Z,78.31
2023-02-24T17:49:32.512Z,78.50
2023-02-24T17:51:34.139Z,78.29
2023-02-24T17:53:35.801Z,78.46
2023-02-24T17:55:37.610Z,78.63
2023-02-24T17:57:41.304Z,78.46
2023-02-24T17:59:43.599Z,78.55
2023-02-24T18:01:45.218Z,78.15
2023-02-24T18:03:46.932Z,78.69
2023-02-24T18:05:48.629Z,78.35
2023-02-24T18:07:50.465Z,78.51
2023-02-24T18:09:52.187Z,78.65
2023-02-24T18:11:53.882Z,78.49
2023-02-24T18:14:00.527Z,79.11
2023-02-24T18:16:02.264Z,79.22
2023-02-24T18:18:04.804Z,78.78
2023-02-24T18:20:08.359Z,79.20
2023-02-24T18:22:12.465Z,79.08
2023-02-24T18:24:14.653Z,79.08
2023-02-24T18:26:16.603Z,78.84
2023-02-24T18:28:18.337Z,79.10
2023-02-24T18:30:21.542Z,78.83
2023-02-24T18:32:23.258Z,79.50
2023-02-24T18:34:25.011Z,78.99
2023-02-24T18:36:27.016Z,79.27
2023-02-24T18:38:29.228Z,79.50
2023-02-24T18:40:30.796Z,79.43
2023-02-24T18:42:32.584Z,79.51
2023-02-24T18:44:34.684Z,79.12
2023-02-24T18:46:37.848Z,79.51
2023-02-24T18:48:40.023Z,79.25
2023-02-24T18:50:41.565Z,80.08
2023-02-24T18:52:43.840Z,79.60
2023-02-24T18:54:45.671Z,79.59
2023-02-24T18:56:47.243Z,79.90
2023-02-24T18:58:49.018Z,79.36
2023-02-24T19:00:50.551Z,79.13
2023-02-24T19:02:53.729Z,79.44
2023-02-24T19:04:55.334Z,79.47
2023-02-24T19:06:56.861Z,79.24
2023-02-24T19:09:00.532Z,79.61
2023-02-24T19:11:08.098Z,79.55
2023-02-24T19:13:10.299Z,79.13
2023-02-24T19:15:11.906Z,79.62
2023-02-24T19:17:13.427Z,78.83
2023-02-24T19:19:17.362Z,79.38
2023-02-24T19:21:19.543Z,78.60
2023-02-24T19:23:21.195Z,79.60
2023-02-24T19:25:22.728Z,79.36
2023-02-24T19:27:24.373Z,79.59
2023-02-24T19:29:27.945Z,79.12
2023-02-24T19:31:32.446Z,79.16
2023-02-24T19:33:34.143Z,78.87
2023-02-24T19:35:39.939Z,79.16
2023-02-24T19:37:41.586Z,78.78
2023-02-24T19:39:43.295Z,78.48
2023-02-24T19:41:46.249Z,79.38
2023-02-24T19:43:48.673Z,79.07
2023-02-24T19:45:50.345Z,78.88
2023-02-24T19:47:52.259Z,79.25
2023-02-24T19:49:54.046Z,79.17
2023-02-24T19:51:57.500Z,79.11
2023-02-24T19:54:00.787Z,79.42
2023-02-24T19:56:02.459Z,79.56
2023-02-24T19:58:04.224Z,79.71
2023-02-24T20:00:07.635Z,79.78
2023-02-24T20:02:09.960Z,79.49
2023-02-24T20:04:11.566Z,80.16
2023-02-24T20:06:17.432Z,79.75
2023-02-24T20:08:20.418Z,79.83
2023-02-24T20:10:22.242Z,79.90
2023-02-24T20:12:24.064Z,79.69
2023-02-24T20:14:28.326Z,79.61
2023-02-24T20:16:31.191Z,79.57
2023-02-24T20:18:33.023Z,79.27
2023-02-24T20:20:36.166Z,79.22
2023-02-24T20:22:37.773Z,78.89
2023-02-24T20:24:40.771Z,79.03
2023-02-24T20:26:44.717Z,79.01
2023-02-24T20:28:47.363Z,79.02
2023-02-24T20:30:50.519Z,78.70
2023-02-24T20:32:52.439Z,78.21
2023-02-24T20:34:54.046Z,78.84
2023-02-24T20:36:55.746Z,78.53
2023-02-24T20:38:58.853Z,78.41
2023-02-24T20:41:01.981Z,78.00
2023-02-24T20:43:04.837Z,78.05
2023-02-24T20:45:08.155Z,77.86
2023-02-24T20:47:09.851Z,77.56
2023-02-24T20:49:13.443Z,77.30
2023-02-24T20:51:15.509Z,77.64
2023-02-24T20:53:17.548Z,77.41
2023-02-24T20:55:19.829Z,77.81
2023-02-24T20:57:22.761Z,77.63
2023-02-24T20:59:24.365Z,77.83
2023-02-24T21:01:26.231Z,77.74
2023-02-24T21:03:27.851Z,77.92
2023-02-24T21:05:29.720Z,77.74
2023-02-24T21:07:31.295Z,77.50
2023-02-24T21:09:33.027Z,78.09
2023-02-24T21:11:34.895Z,77.85
2023-02-24T21:13:39.628Z,78.02
2023-02-24T21:15:49.484Z,77.90
2023-02-24T21:17:51.117Z,77.73
2023-02-24T21:19:52.906Z,77.71
2023-02-24T21:21:54.633Z,77.46
2023-02-24T21:23:56.246Z,77.53
2023-02-24T21:25:57.853Z,77.43
2023-02-24T21:27:59.374Z,77.10
2023-02-24T21:30:02.813Z,77.19
2023-02-24T21:32:04.446Z,76.77
2023-02-24T21:34:06.161Z,76.48
2023-02-24T21:36:10.849Z,76.84
2023-02-24T21:38:12.518Z,76.95
2023-02-24T21:40:14.582Z,76.54
2023-02-24T21:42:16.167Z,76.53
2023-02-24T21:44:17.718Z,77.23
2023-02-24T21:46:21.048Z,76.77
2023-02-24T21:48:23.189Z,76.91
2023-02-24T21:50:25.045Z,76.52
2023-02-24T21:52:26.675Z,77.13
2023-02-24T21:54:28.418Z,76.62
2023-02-24T21:56:30.416Z,76.75
2023-02-24T21:58:32.666Z,77.06
2023-02-24T22:00:34.324Z,76.78
2023-02-24T22:02:37.604Z,77.43
2023-02-24T22:04:39.728Z,76.97
2023-02-24T22:06:42.210Z,77.24
2023-02-24T22:08:44.006Z,77.18
2023-02-24T22:10:45.809Z,77.02
2023-02-24T22:12:48.843Z,77.05
2023-02-24T22:14:50.634Z,77.26
2023-02-24T22:16:52.176Z,77.06
2023-02-24T22:18:55.577Z,77.43
2023-02-24T22:20:57.098Z,77.95
2023-02-24T22:22:58.967Z,78.09
2023-02-24T22:25:00.792Z,77.68
2023-02-24T22:27:02.425Z,77.79
2023-02-24T22:29:06.202Z,77.68
2023-02-24T22:31:09.775Z,77.96
2023-02-24T22:33:11.678Z,78.02
2023-02-24T22:35:14.636Z,78.11
2023-02-24T22:37:16.710Z,78.43
2023-02-24T22:39:18.281Z,77.95
2023-02-24T22:41:21.669Z,78.35
2023-02-24T22:43:23.272Z,78.04
2023-02-24T22:45:25.149Z,77.59
2023-02-24T22:47:26.780Z,77.91
2023-02-24T22:49:28.781Z,77.35
2023-02-24T22:51:32.168Z,78.07
2023-02-24T22:53:38.952Z,77.70
2023-02-24T22:55:45.774Z,77.69
2023-02-24T22:57:47.374Z,78.19
2023-02-24T22:59:48.949Z,77.99
2023-02-24T23:01:50.455Z,77.59
2023-02-24T23:03:52.581Z,78.10
2023-02-24T23:05:55.157Z,77.92
2023-02-24T23:07:58.173Z,77.57
2023-02-24T23:09:59.822Z,77.37
2023-02-24T23:12:01.442Z,77.97
2023-02-24T23:14:05.656Z,77.88
2023-02-24T23:16:09.812Z,77.87
2023-02-24T23:18:11.719Z,77.43
2023-02-24T23:20:13.475Z,77.84
2023-02-24T23:22:15.044Z,77.62
2023-02-24T23:24:20.015Z,78.12
2023-02-24T23:26:22.015Z,77.89
2023-02-24T23:28:25.016Z,78.17
2023-02-24T23:30:26.646Z,77.63
2023-02-24T23:32:28.397Z,77.97
2023-02-24T23:34:30.150Z,77.21
2023-02-24T23:36:31.805Z,77.92
2023-02-24T23:38:33.716Z,77.75
2023-02-24T23:40:49.545Z,77.97
2023-02-24T23:42:52.529Z,77.93
2023-02-24T23:44:54.110Z,78.05
2023-02-24T23:46:55.833Z,77.42
2023-02-24T23:48:57.718Z,78.42
2023-02-24T23:51:02.834Z,77.72
2023-02-24T23:53:06.069Z,78.27
2023-02-24T23:55:08.601Z,77.58
2023-02-24T23:57:11.511Z,78.07
2023-02-24T23:59:13.531Z,77.75
